Wednesday, January 17, 2018, 6:34 AM EST
Back to Local

KCAR, Caribou Municipal Airport

Location: Caribou, ME, United States Lat: 46.867
Local Time: 6:34 AM EST (11:34 GMT) Lon: -68.017
Time Zone: US/Eastern Elev: 626 ft

Show me the last for .
Show Decoded

2018-01-17 06:17 METAR KCAR 171117Z AUTO 00000KT 10SM SCT024 OVC030 M15/M18 A3034 =
2018-01-17 05:54 METAR KCAR 171054Z AUTO 00000KT 10SM OVC024 M15/M18 A3035 RMK AO2 SLP295
                 T11501178 $ =
2018-01-17 04:54 METAR KCAR 170954Z AUTO 00000KT 10SM OVC027 M16/M18 A3034 RMK AO2 SLP295
                 T11611183 $ =
2018-01-17 04:42 METAR KCAR 170942Z AUTO 00000KT 10SM BKN027 OVC036 M16/M19 A3034 =
2018-01-17 04:21 METAR KCAR 170921Z AUTO 00000KT 10SM SCT023 OVC036 M16/M19 A3034 RMK AO2
                 T11611189 $ =
2018-01-17 03:54 METAR KCAR 170854Z AUTO 00000KT 10SM BKN023 OVC034 M17/M19 A3034 RMK AO2 SLP294
                 T11671194 58002 $ =
2018-01-17 02:54 METAR KCAR 170754Z AUTO 36003KT 10SM BKN035 OVC120 M17/M21 A3036 RMK AO2 SLP299
                 T11721206 $ =
2018-01-17 01:54 METAR KCAR 170654Z AUTO 00000KT 10SM FEW034 OVC120 M17/M20 A3035 RMK AO2 SLP298
                 T11671200 $ =
2018-01-17 00:54 METAR KCAR 170554Z AUTO 00000KT 10SM FEW025 M18/M21 A3035 RMK AO2 SLP298 I6000
                 T11831211 11144 21189 55005 $ =
2018-01-17 00:51 METAR KCAR 170551Z AUTO 00000KT 10SM SCT025 M18/M21 A3035 RMK AO2 $ =
2018-01-17 00:28 METAR KCAR 170528Z AUTO 00000KT 10SM BKN025 M18/M21 A3035 RMK AO2 T11781211 $ =
2018-01-16 23:54 METAR KCAR 170454Z AUTO 01004KT 10SM CLR M18/M21 A3035 RMK AO2 SLP299 T11781206
                 411061183 $ =
2018-01-16 22:54 METAR KCAR 170354Z AUTO 00000KT 10SM CLR M17/M19 A3037 RMK AO2 SLP303 I1000
                 T11671189 $ =
2018-01-16 22:21 METAR KCAR 170321Z AUTO 00000KT 10SM SCT029 M17/M19 A3037 RMK AO2 T11671194 $ =
2018-01-16 22:12 METAR KCAR 170312Z AUTO 00000KT 9SM FEW020 BKN029 M16/M19 A3037 RMK AO2
                 T11611189 $ =
2018-01-16 21:54 METAR KCAR 170254Z AUTO 00000KT 9SM CLR M16/M19 A3038 RMK AO2 SLP308 I1000 I3000
                 T11611189 56008 $ =
2018-01-16 20:54 METAR KCAR 170154Z AUTO 12003KT 10SM CLR M16/M18 A3039 RMK AO2 SLP310 I1000
                 T11611183 $ =
2018-01-16 20:27 METAR KCAR 170127Z AUTO 11003KT 9SM FEW025 M16/M18 A3038 RMK AO2 T11611183 $ =
2018-01-16 19:54 METAR KCAR 170054Z AUTO 00000KT 10SM BKN026 M14/M17 A3040 RMK AO2 SLP314 I1000
                 T11441172 $ =
2018-01-16 18:54 METAR KCAR 162354Z AUTO 10003KT 7SM CLR M15/M17 A3041 RMK AO2 SLP317 T11501172
                 11106 21150 52005 $ =
2018-01-16 17:54 METAR KCAR 162254Z AUTO 00000KT 10SM CLR M14/M17 A3040 RMK AO2 SLP314 T11441167
                 =
2018-01-16 16:54 METAR KCAR 162154Z AUTO 17004KT 10SM FEW010 SCT016 M14/M17 A3040 RMK AO2 SLP313
                 T11391167 =
2018-01-16 16:16 METAR KCAR 162116Z AUTO 14004KT 10SM OVC016 M13/M17 A3039 RMK AO2 T11281167 =
2018-01-16 15:54 METAR KCAR 162054Z AUTO 14003KT 10SM OVC014 M13/M16 A3039 RMK AO2 SLP311
                 T11281161 55004 =
2018-01-16 15:43 METAR KCAR 162043Z AUTO 00000KT 10SM OVC014 M12/M16 A3039 RMK AO2 T11221161 =
2018-01-16 15:14 METAR KCAR 162014Z AUTO 00000KT 10SM OVC015 M12/M16 A3039 RMK AO2 T11221161 =
2018-01-16 14:54 METAR KCAR 161954Z AUTO 00000KT 10SM BKN011 OVC015 M12/M16 A3038 RMK AO2 SLP308
                 T11221161 =
2018-01-16 13:54 METAR KCAR 161854Z AUTO 00000KT 7SM BKN014 OVC018 M11/M16 A3039 RMK AO2 SLP310
                 T11111161 =
2018-01-16 13:22 METAR KCAR 161822Z AUTO 00000KT 7SM OVC014 M12/M17 A3039 RMK AO2 T11221167 =
2018-01-16 12:54 METAR KCAR 161754Z AUTO 00000KT 8SM OVC015 M12/M17 A3040 RMK AO2 SLP315
                 T11221167 11122 21167 56024 =
2018-01-16 11:54 METAR KCAR 161654Z AUTO 35003KT 8SM OVC019 M13/M18 A3041 RMK AO2 SLP320
                 T11331178 =
2018-01-16 10:54 METAR KCAR 161554Z AUTO 36004KT 10SM OVC017 M14/M18 A3044 RMK AO2 SLP327
                 T11441183 =
2018-01-16 09:54 METAR KCAR 161454Z AUTO 00000KT 9SM OVC016 M16/M19 A3047 RMK AO2 SLP340
                 T11561194 56006 =
2018-01-16 08:54 METAR KCAR 161354Z AUTO 33004KT 10SM OVC017 M16/M20 A3048 RMK AO2 SLP341
                 T11611200 =
2018-01-16 07:54 METAR KCAR 161254Z AUTO 00000KT 10SM OVC018 M17/M20 A3047 RMK AO2 SLP339
                 T11671200 =
2018-01-16 06:54 METAR KCAR 161154Z AUTO 32004KT 10SM OVC018 M17/M20 A3049 RMK AO2 SLP345
                 T11671200 11167 21178 55002 =

Support USWX by starting your Amazon purchase here.